createdAt,value
2018-09-09T00:00:13.516Z,84.40
2018-09-09T00:01:20.989Z,84.30
2018-09-09T00:02:27.220Z,84.10
2018-09-09T00:03:32.674Z,84.80
2018-09-09T00:04:37.820Z,84.60
2018-09-09T00:05:42.692Z,84.50
2018-09-09T00:06:48.153Z,84.80
2018-09-09T00:07:52.351Z,85.20
2018-09-09T00:08:58.309Z,85.30
2018-09-09T00:10:02.427Z,85.30
2018-09-09T00:11:06.641Z,85.80
2018-09-09T00:12:11.628Z,86.00
2018-09-09T00:13:15.935Z,86.00
2018-09-09T00:14:20.302Z,86.30
2018-09-09T00:15:26.164Z,86.40
2018-09-09T00:16:30.372Z,86.60
2018-09-09T00:17:35.178Z,86.60
2018-09-09T00:18:40.169Z,87.40
2018-09-09T00:19:44.326Z,87.30
2018-09-09T00:20:49.222Z,88.10
2018-09-09T00:21:54.187Z,87.90
2018-09-09T00:22:58.750Z,88.30
2018-09-09T00:24:03.559Z,88.00
2018-09-09T00:25:07.761Z,87.70
2018-09-09T00:26:12.544Z,87.80
2018-09-09T00:27:17.681Z,87.90
2018-09-09T00:28:22.089Z,88.00
2018-09-09T00:29:26.679Z,88.10
2018-09-09T00:30:31.123Z,88.30
2018-09-09T00:31:35.674Z,88.40
2018-09-09T00:32:41.455Z,88.60
2018-09-09T00:33:46.355Z,88.80
2018-09-09T00:34:50.526Z,88.80
2018-09-09T00:35:56.709Z,88.80
2018-09-09T00:37:01.734Z,88.80
2018-09-09T00:38:06.131Z,89.00
2018-09-09T00:39:10.272Z,89.10
2018-09-09T00:40:14.683Z,88.80
2018-09-09T00:41:18.733Z,88.90
2018-09-09T00:42:23.615Z,88.80
2018-09-09T00:43:27.811Z,88.40
2018-09-09T00:44:32.818Z,88.00
2018-09-09T00:45:38.190Z,88.10
2018-09-09T00:46:42.844Z,88.20
2018-09-09T00:47:47.454Z,88.20
2018-09-09T00:48:59.174Z,88.10
2018-09-09T00:50:08.347Z,87.80
2018-09-09T00:51:17.731Z,88.50
2018-09-09T00:52:27.289Z,88.00
2018-09-09T00:53:36.905Z,87.90
2018-09-09T00:54:41.060Z,88.00
2018-09-09T00:55:45.071Z,87.70
2018-09-09T00:56:49.197Z,87.70
2018-09-09T00:57:54.425Z,87.80
2018-09-09T00:58:58.875Z,87.80
2018-09-09T01:00:04.174Z,88.10
2018-09-09T01:01:13.771Z,88.20
2018-09-09T01:02:18.143Z,88.20
2018-09-09T01:03:22.472Z,88.30
2018-09-09T01:04:26.878Z,88.30
2018-09-09T01:05:31.031Z,88.40
2018-09-09T01:06:35.491Z,88.50
2018-09-09T01:07:39.848Z,88.50
2018-09-09T01:08:43.886Z,88.80
2018-09-09T01:09:48.017Z,89.20
2018-09-09T01:10:52.726Z,89.10
2018-09-09T01:11:56.777Z,89.00
2018-09-09T01:13:01.204Z,89.00
2018-09-09T01:14:06.412Z,88.90
2018-09-09T01:15:11.012Z,89.10
2018-09-09T01:16:15.943Z,89.20
2018-09-09T01:17:19.994Z,89.30
2018-09-09T01:18:24.326Z,89.30
2018-09-09T01:19:28.769Z,89.50
2018-09-09T01:20:32.996Z,89.30
2018-09-09T01:21:37.114Z,89.60
2018-09-09T01:22:41.123Z,89.80
2018-09-09T01:23:45.714Z,90.00
2018-09-09T01:24:50.238Z,90.10
2018-09-09T01:25:54.764Z,90.20
2018-09-09T01:26:59.234Z,90.20
2018-09-09T01:28:03.848Z,90.30
2018-09-09T01:29:08.712Z,90.30
2018-09-09T01:30:13.204Z,90.40
2018-09-09T01:31:17.492Z,90.40
2018-09-09T01:32:21.978Z,90.50
2018-09-09T01:33:26.305Z,90.60
2018-09-09T01:34:30.612Z,90.60
2018-09-09T01:35:35.078Z,90.70
2018-09-09T01:36:39.391Z,90.80
2018-09-09T01:37:43.582Z,90.80
2018-09-09T01:38:48.135Z,90.80
2018-09-09T01:39:52.639Z,91.20
2018-09-09T01:40:56.972Z,90.80
2018-09-09T01:42:01.360Z,90.90
2018-09-09T01:43:05.484Z,90.90
2018-09-09T01:44:09.731Z,90.80
2018-09-09T01:45:13.819Z,90.80
2018-09-09T01:46:18.422Z,90.90
2018-09-09T01:47:22.683Z,90.60
2018-09-09T01:48:27.139Z,90.60
2018-09-09T01:49:31.215Z,90.60
2018-09-09T01:50:35.338Z,90.60
2018-09-09T01:51:39.474Z,90.60
2018-09-09T01:52:43.839Z,90.60
2018-09-09T01:53:47.890Z,90.60
2018-09-09T01:54:52.641Z,90.60
2018-09-09T01:55:57.335Z,90.60
2018-09-09T01:57:02.052Z,90.60
2018-09-09T01:58:06.786Z,90.60
2018-09-09T01:59:11.404Z,90.70
2018-09-09T02:00:15.582Z,90.70
2018-09-09T02:01:20.004Z,90.70
2018-09-09T02:02:24.158Z,90.80
2018-09-09T02:03:28.978Z,90.80
2018-09-09T02:04:33.611Z,90.90
2018-09-09T02:05:38.205Z,90.80
2018-09-09T02:06:42.649Z,90.80
2018-09-09T02:07:46.792Z,90.80
2018-09-09T02:08:51.527Z,90.90
2018-09-09T02:09:56.419Z,90.90
2018-09-09T02:11:01.522Z,90.90
2018-09-09T02:12:05.849Z,90.90
2018-09-09T02:13:10.478Z,90.90
2018-09-09T02:14:14.752Z,90.90
2018-09-09T02:15:19.492Z,90.90
2018-09-09T02:16:24.718Z,90.90
2018-09-09T02:17:29.385Z,90.90
2018-09-09T02:18:33.775Z,90.90
2018-09-09T02:19:37.915Z,91.00
2018-09-09T02:20:43.671Z,91.00
2018-09-09T02:21:48.661Z,90.90
2018-09-09T02:22:53.214Z,91.00
2018-09-09T02:23:57.698Z,91.00
2018-09-09T02:25:01.914Z,90.90
2018-09-09T02:26:06.754Z,90.90
2018-09-09T02:27:11.364Z,90.90
2018-09-09T02:28:15.974Z,91.00
2018-09-09T02:29:20.144Z,91.00
2018-09-09T02:30:24.384Z,91.10
2018-09-09T02:31:28.662Z,91.10
2018-09-09T02:32:33.444Z,91.20
2018-09-09T02:33:38.118Z,91.30
2018-09-09T02:34:43.489Z,91.10
2018-09-09T02:35:47.606Z,91.00
2018-09-09T02:36:51.783Z,91.00
2018-09-09T02:37:57.170Z,91.00
2018-09-09T02:39:01.354Z,91.00
2018-09-09T02:40:05.979Z,90.90
2018-09-09T02:41:10.186Z,91.10
2018-09-09T02:42:14.485Z,91.00
2018-09-09T02:43:18.582Z,91.00
2018-09-09T02:44:22.891Z,91.30
2018-09-09T02:45:27.378Z,90.80
2018-09-09T02:46:32.183Z,90.80
2018-09-09T02:47:36.899Z,90.90
2018-09-09T02:48:41.683Z,91.10
2018-09-09T02:49:46.274Z,90.90
2018-09-09T02:50:50.642Z,91.00
2018-09-09T02:51:55.158Z,91.10
2018-09-09T02:52:59.786Z,91.00
2018-09-09T02:54:04.487Z,91.00
2018-09-09T02:55:08.813Z,91.10
2018-09-09T02:56:13.053Z,91.10
2018-09-09T02:57:17.163Z,90.90
2018-09-09T02:58:21.584Z,90.90
2018-09-09T02:59:25.726Z,90.80
2018-09-09T03:00:30.284Z,90.70
2018-09-09T03:01:34.484Z,90.60
2018-09-09T03:02:38.604Z,90.60
2018-09-09T03:03:42.690Z,90.70
2018-09-09T03:04:47.150Z,90.70
2018-09-09T03:05:51.345Z,90.70
2018-09-09T03:06:55.507Z,90.90
2018-09-09T03:07:59.607Z,90.60
2018-09-09T03:09:03.888Z,90.60
2018-09-09T03:10:08.032Z,90.70
2018-09-09T03:11:15.233Z,90.70
2018-09-09T03:12:19.581Z,90.70
2018-09-09T03:13:23.659Z,90.70
2018-09-09T03:14:29.274Z,90.80
2018-09-09T03:15:33.409Z,90.90
2018-09-09T03:16:37.846Z,90.90
2018-09-09T03:17:42.090Z,90.90
2018-09-09T03:18:46.127Z,90.90
2018-09-09T03:19:51.022Z,91.00
2018-09-09T03:20:55.187Z,91.00
2018-09-09T03:21:59.360Z,91.00
2018-09-09T03:23:03.842Z,91.00
2018-09-09T03:24:07.972Z,91.10
2018-09-09T03:25:12.179Z,91.20
2018-09-09T03:26:16.323Z,91.20
2018-09-09T03:27:20.478Z,91.20
2018-09-09T03:28:24.606Z,91.30
2018-09-09T03:29:29.533Z,91.30
2018-09-09T03:30:34.851Z,91.30
2018-09-09T03:31:38.929Z,91.40
2018-09-09T03:32:43.052Z,91.40
2018-09-09T03:33:47.270Z,91.40
2018-09-09T03:34:51.368Z,91.40
2018-09-09T03:35:55.768Z,91.40
2018-09-09T03:36:59.877Z,91.40
2018-09-09T03:38:04.080Z,91.30
2018-09-09T03:39:09.990Z,91.40
2018-09-09T03:40:14.190Z,91.30
2018-09-09T03:41:18.271Z,91.30
2018-09-09T03:42:23.181Z,91.20
2018-09-09T03:43:27.425Z,91.20
2018-09-09T03:44:31.565Z,91.20
2018-09-09T03:45:35.595Z,91.20
2018-09-09T03:46:39.673Z,91.20
2018-09-09T03:47:44.562Z,91.30
2018-09-09T03:48:48.605Z,91.30
2018-09-09T03:49:52.766Z,91.20
2018-09-09T03:50:57.042Z,91.10
2018-09-09T03:52:01.105Z,91.20
2018-09-09T03:53:05.234Z,91.20
2018-09-09T03:54:09.334Z,91.30
2018-09-09T03:55:13.369Z,91.30
2018-09-09T03:56:17.652Z,91.30
2018-09-09T03:57:21.852Z,91.40
2018-09-09T03:58:25.988Z,91.40
2018-09-09T03:59:30.156Z,91.40
2018-09-09T04:00:34.393Z,91.50
2018-09-09T04:01:38.594Z,91.50
2018-09-09T04:02:42.753Z,91.60
2018-09-09T04:03:46.946Z,91.60
2018-09-09T04:04:51.034Z,91.60
2018-09-09T04:05:55.125Z,91.60
2018-09-09T04:06:59.301Z,91.60
2018-09-09T04:08:03.549Z,91.60
2018-09-09T04:09:08.441Z,91.70
2018-09-09T04:10:12.692Z,91.70
2018-09-09T04:11:16.894Z,91.70
2018-09-09T04:12:21.404Z,91.60
2018-09-09T04:13:25.706Z,91.60
2018-09-09T04:14:29.832Z,91.50
2018-09-09T04:15:33.977Z,91.60
2018-09-09T04:16:38.352Z,91.50
2018-09-09T04:17:42.703Z,91.50
2018-09-09T04:18:47.178Z,91.50
2018-09-09T04:19:51.323Z,91.60
2018-09-09T04:20:55.391Z,91.50
2018-09-09T04:21:59.471Z,91.50
2018-09-09T04:23:03.622Z,91.60
2018-09-09T04:24:07.794Z,91.70
2018-09-09T04:25:12.183Z,91.60
2018-09-09T04:26:16.285Z,91.60
2018-09-09T04:27:20.375Z,91.50
2018-09-09T04:28:25.941Z,92.00
2018-09-09T04:29:30.043Z,91.50
2018-09-09T04:30:34.153Z,91.40
2018-09-09T04:31:38.257Z,91.30
2018-09-09T04:32:42.363Z,91.20
2018-09-09T04:33:47.621Z,91.30
2018-09-09T04:34:51.688Z,91.30
2018-09-09T04:35:56.039Z,91.20
2018-09-09T04:37:01.602Z,91.20
2018-09-09T04:38:05.637Z,91.20
2018-09-09T04:39:12.450Z,91.30
2018-09-09T04:40:16.752Z,91.30
2018-09-09T04:41:21.009Z,91.30
2018-09-09T04:42:25.131Z,91.30
2018-09-09T04:43:29.719Z,91.30
2018-09-09T04:44:35.239Z,91.20
2018-09-09T04:45:39.327Z,91.20
2018-09-09T04:46:43.562Z,91.10
2018-09-09T04:47:47.638Z,91.20
2018-09-09T04:48:51.774Z,91.30
2018-09-09T04:49:55.825Z,91.10
2018-09-09T04:50:59.939Z,91.10
2018-09-09T04:52:04.023Z,91.10
2018-09-09T04:53:08.215Z,91.10
2018-09-09T04:54:12.614Z,91.00
2018-09-09T04:55:16.717Z,91.00
2018-09-09T04:56:21.374Z,91.10
2018-09-09T04:57:25.711Z,91.10
2018-09-09T04:58:30.192Z,91.10
2018-09-09T04:59:34.300Z,91.10
2018-09-09T05:00:38.399Z,91.10
2018-09-09T05:01:43.010Z,91.40
2018-09-09T05:02:47.274Z,91.10
2018-09-09T05:03:51.951Z,91.10
2018-09-09T05:04:56.093Z,91.00
2018-09-09T05:06:00.745Z,91.00
2018-09-09T05:07:04.961Z,91.10
2018-09-09T05:08:09.119Z,91.10
2018-09-09T05:09:13.219Z,91.10
2018-09-09T05:10:17.572Z,91.10
2018-09-09T05:11:21.755Z,91.20
2018-09-09T05:12:26.085Z,91.30
2018-09-09T05:13:30.807Z,91.30
2018-09-09T05:14:34.922Z,91.40
2018-09-09T05:15:39.382Z,91.30
2018-09-09T05:16:43.480Z,91.50
2018-09-09T05:17:47.570Z,91.50
2018-09-09T05:18:51.982Z,91.50
2018-09-09T05:19:56.418Z,91.50
2018-09-09T05:21:00.513Z,91.40
2018-09-09T05:22:04.598Z,91.40
2018-09-09T05:23:08.651Z,91.50
2018-09-09T05:24:12.977Z,91.50
2018-09-09T05:25:17.589Z,91.50
2018-09-09T05:26:21.686Z,91.40
2018-09-09T05:27:25.735Z,91.40
2018-09-09T05:28:30.714Z,91.50
2018-09-09T05:29:34.803Z,91.40
2018-09-09T05:30:38.932Z,91.40
2018-09-09T05:31:43.335Z,91.40
2018-09-09T05:32:47.730Z,91.40
2018-09-09T05:33:51.829Z,91.30
2018-09-09T05:34:55.961Z,91.30
2018-09-09T05:36:00.097Z,91.40
2018-09-09T05:37:04.228Z,90.80
2018-09-09T05:38:08.647Z,91.30
2018-09-09T05:39:12.903Z,91.40
2018-09-09T05:40:16.958Z,91.40
2018-09-09T05:41:21.114Z,91.50
2018-09-09T05:42:25.223Z,91.50
2018-09-09T05:43:29.276Z,91.60
2018-09-09T05:44:33.587Z,91.60
2018-09-09T05:45:37.639Z,91.60
2018-09-09T05:46:41.674Z,91.50
2018-09-09T05:47:45.801Z,91.60
2018-09-09T05:48:50.128Z,91.60
2018-09-09T05:49:54.168Z,91.60
2018-09-09T05:50:58.541Z,91.60
2018-09-09T05:52:02.698Z,91.50
2018-09-09T05:53:07.672Z,91.50
2018-09-09T05:54:11.801Z,91.50
2018-09-09T05:55:16.396Z,91.50
2018-09-09T05:56:20.650Z,91.50
2018-09-09T05:57:24.855Z,91.60
2018-09-09T05:58:28.969Z,91.70
2018-09-09T05:59:33.230Z,91.90
2018-09-09T06:00:37.452Z,91.80
2018-09-09T06:01:41.742Z,91.80
2018-09-09T06:02:46.350Z,91.70
2018-09-09T06:03:50.496Z,91.80
2018-09-09T06:04:55.095Z,91.80
2018-09-09T06:05:59.404Z,91.70
2018-09-09T06:07:04.177Z,91.80
2018-09-09T06:08:09.123Z,91.70
2018-09-09T06:09:13.966Z,92.10
2018-09-09T06:10:18.135Z,91.70
2018-09-09T06:11:22.554Z,91.80
2018-09-09T06:12:26.699Z,91.80
2018-09-09T06:13:30.989Z,91.80
2018-09-09T06:14:35.048Z,91.80
2018-09-09T06:15:39.166Z,91.80
2018-09-09T06:16:43.298Z,91.80
2018-09-09T06:17:48.692Z,91.80
2018-09-09T06:18:55.813Z,91.80
2018-09-09T06:20:00.244Z,91.70
2018-09-09T06:21:04.708Z,91.70
2018-09-09T06:22:09.055Z,91.70
2018-09-09T06:23:13.241Z,92.00
2018-09-09T06:24:17.395Z,91.70
2018-09-09T06:25:21.824Z,91.70
2018-09-09T06:26:26.795Z,91.60
2018-09-09T06:27:31.121Z,91.60
2018-09-09T06:28:36.187Z,91.60
2018-09-09T06:29:41.162Z,91.70
2018-09-09T06:30:45.267Z,91.90
2018-09-09T06:31:50.031Z,91.70
2018-09-09T06:32:54.286Z,91.50
2018-09-09T06:33:59.712Z,91.60
2018-09-09T06:35:03.795Z,91.50
2018-09-09T06:36:09.120Z,91.60
2018-09-09T06:37:13.777Z,91.70
2018-09-09T06:38:18.162Z,91.70
2018-09-09T06:39:22.258Z,91.70
2018-09-09T06:40:26.300Z,91.70
2018-09-09T06:41:30.652Z,91.60
2018-09-09T06:42:34.963Z,91.60
2018-09-09T06:43:39.737Z,91.60
2018-09-09T06:44:44.920Z,91.60
2018-09-09T06:45:50.465Z,91.60
2018-09-09T06:46:54.750Z,91.60
2018-09-09T06:47:59.105Z,91.60
2018-09-09T06:49:07.654Z,91.60
2018-09-09T06:50:12.782Z,91.60
2018-09-09T06:51:17.130Z,91.60
2018-09-09T06:52:21.286Z,91.60
2018-09-09T06:53:27.970Z,91.90
2018-09-09T06:54:34.347Z,91.90
2018-09-09T06:55:39.492Z,91.60
2018-09-09T06:56:43.891Z,91.60
2018-09-09T06:57:48.568Z,91.40
2018-09-09T06:58:59.701Z,91.30
2018-09-09T07:00:04.660Z,91.20
2018-09-09T07:01:10.839Z,91.10
2018-09-09T07:02:19.412Z,91.10
2018-09-09T07:03:27.199Z,91.10
2018-09-09T07:04:33.683Z,91.10
2018-09-09T07:05:37.825Z,91.00
2018-09-09T07:06:44.462Z,91.00
2018-09-09T07:07:49.297Z,91.00
2018-09-09T07:08:53.417Z,91.00
2018-09-09T07:10:00.490Z,90.90
2018-09-09T07:11:04.662Z,90.90
2018-09-09T07:12:10.326Z,90.90
2018-09-09T07:13:16.752Z,90.90
2018-09-09T07:14:21.749Z,90.90
2018-09-09T07:15:27.744Z,90.90
2018-09-09T07:16:33.088Z,91.00
2018-09-09T07:17:39.421Z,91.00
2018-09-09T07:18:43.551Z,90.90
2018-09-09T07:19:50.903Z,90.80
2018-09-09T07:21:02.051Z,90.70
2018-09-09T07:22:07.189Z,90.70
2018-09-09T07:23:15.114Z,91.10
2018-09-09T07:24:20.447Z,90.50
2018-09-09T07:25:25.731Z,90.40
2018-09-09T07:26:35.140Z,90.40
2018-09-09T07:27:40.697Z,90.40
2018-09-09T07:30:10.711Z,90.20
2018-09-09T07:31:17.551Z,90.00
2018-09-09T07:32:40.775Z,90.10
2018-09-09T07:33:53.960Z,90.20
2018-09-09T07:35:13.539Z,90.10
2018-09-09T07:36:19.230Z,90.20
2018-09-09T07:37:23.457Z,90.20
2018-09-09T07:38:31.093Z,90.20
2018-09-09T07:39:35.746Z,90.10
2018-09-09T07:40:40.384Z,90.10
2018-09-09T07:41:46.204Z,90.20
2018-09-09T07:42:50.540Z,90.70
2018-09-09T07:43:54.833Z,90.30
2018-09-09T07:44:59.630Z,90.10
2018-09-09T07:46:03.892Z,90.00
2018-09-09T07:47:09.037Z,89.60
2018-09-09T07:48:13.332Z,90.00
2018-09-09T07:49:17.630Z,90.00
2018-09-09T07:50:22.648Z,89.60
2018-09-09T07:51:27.023Z,89.60
2018-09-09T07:52:31.280Z,89.70
2018-09-09T07:53:36.672Z,90.10
2018-09-09T07:54:43.015Z,89.50
2018-09-09T07:55:47.331Z,89.00
2018-09-09T07:56:53.281Z,88.30
2018-09-09T07:57:58.557Z,88.00
2018-09-09T07:59:03.904Z,87.50
2018-09-09T08:00:08.959Z,87.40
2018-09-09T08:01:13.174Z,87.00
2018-09-09T08:02:17.263Z,86.90
2018-09-09T08:03:24.401Z,86.60
2018-09-09T08:04:28.955Z,86.20
2018-09-09T08:05:33.573Z,86.00
2018-09-09T08:06:37.781Z,85.40
2018-09-09T08:08:06.149Z,83.80
2018-09-09T08:09:11.509Z,84.90
2018-09-09T08:10:17.296Z,84.80
2018-09-09T08:11:54.760Z,84.30
2018-09-09T08:13:11.509Z,85.10
2018-09-09T08:14:24.059Z,84.50
2018-09-09T08:16:59.066Z,84.60
2018-09-09T08:18:18.726Z,85.20
2018-09-09T08:19:47.815Z,84.20
2018-09-09T08:21:22.398Z,82.20
2018-09-09T08:22:35.558Z,81.40
2018-09-09T08:23:46.479Z,81.30
2018-09-09T08:25:02.499Z,81.20
2018-09-09T08:26:17.279Z,81.20
2018-09-09T08:27:22.435Z,80.50
2018-09-09T08:28:27.153Z,80.40
2018-09-09T08:29:32.482Z,80.50
2018-09-09T08:30:38.099Z,80.60
2018-09-09T08:31:47.806Z,80.00
2018-09-09T08:32:53.820Z,79.60
2018-09-09T08:33:58.051Z,79.30
2018-09-09T08:35:02.371Z,79.10
2018-09-09T08:36:07.567Z,79.00
2018-09-09T08:37:11.661Z,79.20
2018-09-09T08:38:19.467Z,79.10
2018-09-09T08:39:27.727Z,78.80
2018-09-09T08:40:32.024Z,78.00
2018-09-09T08:41:45.836Z,77.70
2018-09-09T08:42:52.516Z,77.80
2018-09-09T08:43:56.940Z,77.80
2018-09-09T08:45:03.090Z,77.50
2018-09-09T08:46:16.173Z,76.60
2018-09-09T08:47:22.187Z,76.60
2018-09-09T08:48:26.753Z,76.00
2018-09-09T08:49:57.748Z,76.20
2018-09-09T08:51:05.779Z,76.70
2018-09-09T08:53:47.569Z,75.50
2018-09-09T08:54:52.600Z,75.20
2018-09-09T08:55:58.108Z,75.50
2018-09-09T08:57:04.228Z,75.50
2018-09-09T08:58:12.052Z,75.30
2018-09-09T08:59:17.004Z,75.10
2018-09-09T09:00:22.639Z,74.10
2018-09-09T09:01:28.284Z,73.50
2018-09-09T09:02:32.961Z,73.30
2018-09-09T09:03:38.422Z,73.10
2018-09-09T09:04:43.754Z,73.70
2018-09-09T09:06:04.631Z,73.60
2018-09-09T09:07:13.685Z,72.90
2018-09-09T09:08:19.881Z,72.20
2018-09-09T09:09:24.371Z,71.10
2018-09-09T09:10:35.097Z,70.70
2018-09-09T09:11:39.663Z,70.60
2018-09-09T09:12:45.775Z,70.90
2018-09-09T09:13:50.793Z,70.90
2018-09-09T09:14:56.308Z,70.60
2018-09-09T09:16:04.830Z,70.60
2018-09-09T09:17:11.595Z,70.70
2018-09-09T09:18:18.735Z,70.20
2018-09-09T09:19:23.191Z,71.00
2018-09-09T09:20:31.028Z,71.00
2018-09-09T09:21:36.860Z,71.10
2018-09-09T09:22:41.243Z,69.80
2018-09-09T09:23:47.308Z,68.30
2018-09-09T09:24:52.410Z,68.10
2018-09-09T09:25:56.842Z,69.20
2018-09-09T09:27:06.850Z,69.40
2018-09-09T09:28:14.190Z,68.70
2018-09-09T09:29:25.552Z,69.70
2018-09-09T09:30:31.797Z,71.40
2018-09-09T09:31:37.221Z,69.30
2018-09-09T09:32:45.800Z,69.00
2018-09-09T09:33:52.782Z,69.10
2018-09-09T09:34:58.757Z,68.70
2018-09-09T09:36:03.876Z,68.90
2018-09-09T09:37:08.794Z,69.60
2018-09-09T09:38:21.769Z,68.50
2018-09-09T09:39:27.628Z,68.40
2018-09-09T09:40:34.494Z,67.10
2018-09-09T09:41:39.029Z,65.80
2018-09-09T09:42:45.859Z,65.90
2018-09-09T09:45:21.993Z,66.00
2018-09-09T09:47:08.984Z,65.50
2018-09-09T09:50:24.714Z,64.90
2018-09-09T09:51:42.173Z,65.80
2018-09-09T09:54:07.092Z,67.20
2018-09-09T09:55:13.275Z,67.40
2018-09-09T09:56:21.989Z,67.80
2018-09-09T09:57:31.047Z,65.90
2018-09-09T10:00:42.042Z,65.10
2018-09-09T10:01:47.069Z,64.00
2018-09-09T10:02:55.646Z,64.10
2018-09-09T10:04:00.852Z,64.40
2018-09-09T10:05:06.285Z,64.10
2018-09-09T10:06:13.722Z,64.10
2018-09-09T10:07:23.935Z,64.10
2018-09-09T10:08:30.096Z,65.00
2018-09-09T10:09:36.835Z,63.60
2018-09-09T10:10:41.611Z,63.20
2018-09-09T10:11:47.093Z,63.60
2018-09-09T10:12:52.551Z,63.20
2018-09-09T10:13:58.118Z,62.30
2018-09-09T10:15:02.828Z,61.60
2018-09-09T10:16:08.328Z,61.20
2018-09-09T10:17:13.073Z,61.10
2018-09-09T10:18:19.430Z,61.50
2018-09-09T10:19:24.084Z,61.20
2018-09-09T10:20:29.311Z,60.00
2018-09-09T10:21:36.884Z,59.50
2018-09-09T10:22:42.132Z,60.10
2018-09-09T10:23:47.320Z,60.10
2018-09-09T10:24:56.993Z,60.00
2018-09-09T10:26:09.772Z,60.00
2018-09-09T10:27:17.611Z,59.60
2018-09-09T10:28:25.571Z,59.40
2018-09-09T10:29:33.464Z,59.10
2018-09-09T10:30:41.135Z,59.30
2018-09-09T10:31:47.066Z,58.90
2018-09-09T10:32:52.265Z,59.10
2018-09-09T10:33:57.559Z,59.40
2018-09-09T10:35:03.943Z,58.50
2018-09-09T10:36:16.751Z,57.80
2018-09-09T10:37:25.464Z,58.00
2018-09-09T10:38:41.475Z,57.00
2018-09-09T10:39:52.377Z,56.90
2018-09-09T10:41:05.711Z,56.50
2018-09-09T10:42:12.086Z,56.50
2018-09-09T10:43:22.848Z,56.10
2018-09-09T10:44:27.763Z,55.70
2018-09-09T10:45:34.779Z,55.10
2018-09-09T10:46:41.754Z,54.90
2018-09-09T10:47:46.247Z,54.50
2018-09-09T10:48:57.419Z,54.00
2018-09-09T10:50:12.356Z,53.70
2018-09-09T10:51:18.452Z,53.50
2018-09-09T10:52:25.938Z,53.40
2018-09-09T10:53:34.588Z,53.20
2018-09-09T10:54:44.427Z,52.80
2018-09-09T10:56:02.047Z,52.40
2018-09-09T10:57:15.411Z,52.30
2018-09-09T10:58:22.001Z,51.90
2018-09-09T10:59:26.738Z,53.40
2018-09-09T11:00:32.416Z,54.30
2018-09-09T11:01:37.301Z,67.50
2018-09-09T11:02:42.287Z,53.30
2018-09-09T11:03:51.094Z,52.50
2018-09-09T11:04:56.421Z,52.10
2018-09-09T11:06:14.127Z,51.70
2018-09-09T11:07:23.269Z,51.30
2018-09-09T11:08:27.923Z,51.70
2018-09-09T11:09:35.211Z,50.50
2018-09-09T11:10:43.265Z,50.90
2018-09-09T11:11:49.140Z,50.80
2018-09-09T11:12:54.879Z,50.50
2018-09-09T11:14:01.474Z,49.70
2018-09-09T11:15:11.908Z,52.20
2018-09-09T11:16:16.856Z,49.60
2018-09-09T11:17:25.233Z,49.00
2018-09-09T11:18:33.570Z,48.50
2018-09-09T11:19:40.181Z,49.10
2018-09-09T11:20:49.166Z,47.50
2018-09-09T11:21:56.351Z,47.10
2018-09-09T11:23:07.797Z,47.50
2018-09-09T11:24:15.697Z,47.70
2018-09-09T11:25:21.733Z,47.50
2018-09-09T11:26:27.379Z,47.30
2018-09-09T11:27:35.090Z,47.30
2018-09-09T11:28:47.097Z,47.00
2018-09-09T11:29:52.335Z,46.80
2018-09-09T11:31:00.478Z,47.10
2018-09-09T11:32:04.823Z,47.30
2018-09-09T11:33:10.626Z,47.60
2018-09-09T11:34:16.030Z,46.80
2018-09-09T11:35:27.964Z,46.40
2018-09-09T11:36:32.613Z,46.30
2018-09-09T11:37:37.657Z,45.90
2018-09-09T11:38:42.934Z,45.30
2018-09-09T11:39:47.463Z,42.00
2018-09-09T11:40:54.688Z,40.50
2018-09-09T11:41:59.680Z,36.80
2018-09-09T11:43:21.737Z,32.70
2018-09-09T11:44:27.043Z,30.10
2018-09-09T11:45:31.650Z,27.50
2018-09-09T11:46:36.276Z,26.60
2018-09-09T11:47:40.852Z,25.20
2018-09-09T11:48:48.276Z,24.50
2018-09-09T11:49:54.009Z,24.20
2018-09-09T11:50:59.425Z,24.20
2018-09-09T11:52:07.607Z,23.60
2018-09-09T11:53:12.681Z,24.10
2018-09-09T11:54:18.261Z,24.70
2018-09-09T11:55:22.958Z,25.50
2018-09-09T11:56:34.667Z,26.20
2018-09-09T11:57:50.818Z,26.60
2018-09-09T11:58:58.460Z,27.00
2018-09-09T12:00:05.569Z,26.70
2018-09-09T12:01:11.695Z,26.20
2018-09-09T12:02:18.426Z,26.70
2018-09-09T12:03:25.131Z,26.70
2018-09-09T12:04:30.558Z,25.40
2018-09-09T12:05:36.624Z,24.80
2018-09-09T12:06:43.393Z,23.50
2018-09-09T12:09:39.096Z,20.50
2018-09-09T12:10:58.774Z,19.30
2018-09-09T12:12:03.823Z,18.90
2018-09-09T12:13:18.206Z,17.80
2018-09-09T12:14:23.368Z,17.60
2018-09-09T12:15:31.058Z,16.80
2018-09-09T12:17:00.088Z,16.20
2018-09-09T12:21:15.110Z,16.20
2018-09-09T12:22:37.858Z,15.50
2018-09-09T12:23:47.195Z,15.80
2018-09-09T12:25:54.493Z,16.60
2018-09-09T12:28:07.434Z,13.30
2018-09-09T12:29:13.915Z,13.40
2018-09-09T12:30:19.022Z,13.20
2018-09-09T12:31:24.801Z,13.00
2018-09-09T12:32:30.105Z,13.00
2018-09-09T12:33:38.214Z,13.00
2018-09-09T12:34:42.427Z,13.70
2018-09-09T12:35:46.713Z,14.90
2018-09-09T12:36:53.610Z,15.40
2018-09-09T12:38:05.220Z,15.50
2018-09-09T12:39:13.917Z,15.10
2018-09-09T12:40:21.907Z,14.40
2018-09-09T12:41:29.071Z,14.10
2018-09-09T12:42:33.767Z,14.50
2018-09-09T12:43:44.008Z,15.40
2018-09-09T12:44:56.507Z,16.40
2018-09-09T12:46:07.010Z,16.60
2018-09-09T12:47:21.720Z,16.00
2018-09-09T12:48:40.311Z,15.60
2018-09-09T12:49:47.019Z,14.50
2018-09-09T12:50:52.353Z,14.40
2018-09-09T12:51:59.624Z,14.50
2018-09-09T12:53:05.321Z,13.80
2018-09-09T12:54:10.926Z,13.70
2018-09-09T12:55:25.325Z,14.10
2018-09-09T12:56:50.297Z,14.10
2018-09-09T12:57:59.448Z,14.20
2018-09-09T12:59:28.037Z,14.90
2018-09-09T13:00:44.134Z,16.20
2018-09-09T13:01:49.465Z,18.20
2018-09-09T13:02:54.226Z,19.60
2018-09-09T13:04:01.712Z,20.80
2018-09-09T13:05:09.720Z,23.20
2018-09-09T13:06:21.186Z,23.10
2018-09-09T13:07:25.446Z,24.40
2018-09-09T13:08:33.257Z,24.40
2018-09-09T13:09:39.366Z,25.40
2018-09-09T13:11:14.193Z,26.80
2018-09-09T13:12:18.631Z,26.80
2018-09-09T13:13:23.641Z,30.00
2018-09-09T13:14:28.345Z,28.60
2018-09-09T13:16:47.314Z,29.30
2018-09-09T13:17:52.506Z,29.20
2018-09-09T13:18:58.254Z,30.60
2018-09-09T13:20:02.911Z,30.70
2018-09-09T13:21:07.696Z,31.00
2018-09-09T13:22:13.776Z,31.40
2018-09-09T13:23:19.529Z,31.60
2018-09-09T13:24:24.848Z,31.80
2018-09-09T13:25:29.442Z,31.90
2018-09-09T13:26:34.291Z,32.30
2018-09-09T13:27:40.772Z,32.40
2018-09-09T13:28:50.125Z,32.80
2018-09-09T13:29:55.208Z,33.10
2018-09-09T13:30:59.781Z,33.30
2018-09-09T13:32:06.085Z,33.70
2018-09-09T13:33:10.359Z,34.10
2018-09-09T13:34:15.378Z,34.70
2018-09-09T13:35:21.262Z,34.80
2018-09-09T13:36:25.824Z,35.10
2018-09-09T13:37:32.361Z,35.90
2018-09-09T13:38:38.062Z,36.20
2018-09-09T13:39:43.679Z,36.30
2018-09-09T13:40:48.747Z,36.50
2018-09-09T13:41:57.270Z,36.50
2018-09-09T13:43:05.331Z,36.20
2018-09-09T13:44:09.712Z,36.00
2018-09-09T13:45:15.048Z,36.50
2018-09-09T13:46:19.351Z,45.20
2018-09-09T13:47:25.682Z,45.20
2018-09-09T13:48:42.538Z,44.60
2018-09-09T13:49:50.606Z,39.70
2018-09-09T13:50:55.086Z,41.90
2018-09-09T13:51:59.770Z,44.60
2018-09-09T13:53:07.602Z,41.90
2018-09-09T13:54:12.865Z,40.30
2018-09-09T13:55:19.910Z,38.70
2018-09-09T13:56:24.744Z,38.50
2018-09-09T13:57:30.478Z,37.30
2018-09-09T13:58:35.193Z,36.80
2018-09-09T13:59:39.739Z,36.90
2018-09-09T14:00:44.641Z,36.60
2018-09-09T14:01:49.169Z,36.90
2018-09-09T14:02:58.808Z,36.50
2018-09-09T14:04:04.426Z,36.40
2018-09-09T14:05:10.679Z,36.50
2018-09-09T14:06:15.310Z,36.70
2018-09-09T14:07:19.811Z,36.80
2018-09-09T14:08:24.800Z,37.50
2018-09-09T14:09:29.169Z,38.50
2018-09-09T14:10:34.103Z,38.60
2018-09-09T14:11:39.097Z,39.30
2018-09-09T14:12:43.651Z,38.90
2018-09-09T14:13:50.656Z,39.00
2018-09-09T14:14:56.163Z,39.20
2018-09-09T14:16:00.524Z,39.20
2018-09-09T14:17:05.223Z,39.50
2018-09-09T14:19:25.949Z,39.80
2018-09-09T14:20:32.828Z,39.00
2018-09-09T14:21:37.711Z,39.10
2018-09-09T14:22:43.613Z,38.70
2018-09-09T14:23:50.280Z,38.60
2018-09-09T14:24:58.837Z,38.70
2018-09-09T14:26:03.287Z,37.70
2018-09-09T14:27:11.097Z,38.60
2018-09-09T14:28:22.228Z,39.10
2018-09-09T14:29:28.383Z,38.40
2018-09-09T14:30:36.458Z,37.60
2018-09-09T14:31:41.602Z,37.30
2018-09-09T14:32:48.226Z,38.60